sensor_id;sensor_type;location;lat;lon;timestamp;temperature;humidity
30097;DHT22;16915;51.466;3.610;2023-04-24T00:01:39;9.50;99.90
30097;DHT22;16915;51.466;3.610;2023-04-24T00:04:06;9.50;99.90
30097;DHT22;16915;51.466;3.610;2023-04-24T00:06:32;9.50;99.90
30097;DHT22;16915;51.466;3.610;2023-04-24T00:09:05;9.50;99.90
30097;DHT22;16915;51.466;3.610;2023-04-24T00:11:31;9.50;99.90
30097;DHT22;16915;51.466;3.610;2023-04-24T00:13:57;9.50;99.90
30097;DHT22;16915;51.466;3.610;2023-04-24T00:16:23;9.50;99.90
30097;DHT22;16915;51.466;3.610;2023-04-24T00:18:48;9.50;99.90
30097;DHT22;16915;51.466;3.610;2023-04-24T00:21:15;9.50;99.90
30097;DHT22;16915;51.466;3.610;2023-04-24T00:23:43;9.40;99.90
30097;DHT22;16915;51.466;3.610;2023-04-24T00:26:09;9.40;99.90
30097;DHT22;16915;51.466;3.610;2023-04-24T00:28:34;9.40;99.90
30097;DHT22;16915;51.466;3.610;2023-04-24T00:31:00;9.30;99.90
30097;DHT22;16915;51.466;3.610;2023-04-24T00:33:26;9.30;99.90
30097;DHT22;16915;51.466;3.610;2023-04-24T00:35:51;9.30;99.90
30097;DHT22;16915;51.466;3.610;2023-04-24T00:38:17;9.20;99.90
30097;DHT22;16915;51.466;3.610;2023-04-24T00:40:42;9.20;99.90
30097;DHT22;16915;51.466;3.610;2023-04-24T00:43:08;9.10;99.90
30097;DHT22;16915;51.466;3.610;2023-04-24T00:45:33;9.00;99.90
30097;DHT22;16915;51.466;3.610;2023-04-24T00:48:00;9.00;99.90
30097;DHT22;16915;51.466;3.610;2023-04-24T00:50:26;9.00;99.90
30097;DHT22;16915;51.466;3.610;2023-04-24T00:52:52;8.90;99.90
30097;DHT22;16915;51.466;3.610;2023-04-24T00:55:18;8.90;99.90
30097;DHT22;16915;51.466;3.610;2023-04-24T00:57:47;8.90;99.90
30097;DHT22;16915;51.466;3.610;2023-04-24T01:00:14;8.90;99.90
30097;DHT22;16915;51.466;3.610;2023-04-24T01:02:41;8.80;99.90
30097;DHT22;16915;51.466;3.610;2023-04-24T01:05:12;8.80;99.90
30097;DHT22;16915;51.466;3.610;2023-04-24T01:07:39;8.80;99.90
30097;DHT22;16915;51.466;3.610;2023-04-24T01:10:07;8.80;99.90
30097;DHT22;16915;51.466;3.610;2023-04-24T01:12:33;8.80;99.90
30097;DHT22;16915;51.466;3.610;2023-04-24T01:14:59;8.80;99.90
30097;DHT22;16915;51.466;3.610;2023-04-24T01:17:25;8.80;99.90
30097;DHT22;16915;51.466;3.610;2023-04-24T01:19:50;8.80;99.90
30097;DHT22;16915;51.466;3.610;2023-04-24T01:22:19;8.90;99.90
30097;DHT22;16915;51.466;3.610;2023-04-24T01:24:45;8.90;99.90
30097;DHT22;16915;51.466;3.610;2023-04-24T01:27:10;8.90;99.90
30097;DHT22;16915;51.466;3.610;2023-04-24T01:29:36;9.00;99.90
30097;DHT22;16915;51.466;3.610;2023-04-24T01:32:03;9.00;99.90
30097;DHT22;16915;51.466;3.610;2023-04-24T01:34:28;9.00;99.90
30097;DHT22;16915;51.466;3.610;2023-04-24T01:36:54;9.00;99.90
30097;DHT22;16915;51.466;3.610;2023-04-24T01:39:21;9.10;99.90
30097;DHT22;16915;51.466;3.610;2023-04-24T01:41:48;9.00;99.90
30097;DHT22;16915;51.466;3.610;2023-04-24T01:44:15;9.10;99.90
30097;DHT22;16915;51.466;3.610;2023-04-24T01:46:41;9.10;99.90
30097;DHT22;16915;51.466;3.610;2023-04-24T01:49:07;9.10;99.90
30097;DHT22;16915;51.466;3.610;2023-04-24T01:51:32;9.10;99.90
30097;DHT22;16915;51.466;3.610;2023-04-24T01:53:58;9.10;99.90
30097;DHT22;16915;51.466;3.610;2023-04-24T01:56:24;9.00;99.90
30097;DHT22;16915;51.466;3.610;2023-04-24T01:58:52;9.10;99.90
30097;DHT22;16915;51.466;3.610;2023-04-24T02:01:23;9.00;99.90
30097;DHT22;16915;51.466;3.610;2023-04-24T02:03:50;9.00;99.90
30097;DHT22;16915;51.466;3.610;2023-04-24T02:06:15;9.00;99.90
30097;DHT22;16915;51.466;3.610;2023-04-24T02:08:41;8.90;99.90
30097;DHT22;16915;51.466;3.610;2023-04-24T02:11:09;8.90;99.90
30097;DHT22;16915;51.466;3.610;2023-04-24T02:13:35;8.90;99.90
30097;DHT22;16915;51.466;3.610;2023-04-24T02:16:00;8.90;99.90
30097;DHT22;16915;51.466;3.610;2023-04-24T02:18:26;8.90;99.90
30097;DHT22;16915;51.466;3.610;2023-04-24T02:20:52;8.90;99.90
30097;DHT22;16915;51.466;3.610;2023-04-24T02:23:17;8.80;99.90
30097;DHT22;16915;51.466;3.610;2023-04-24T02:25:43;8.80;99.90
30097;DHT22;16915;51.466;3.610;2023-04-24T02:28:08;8.80;99.90
30097;DHT22;16915;51.466;3.610;2023-04-24T02:30:34;8.80;99.90
30097;DHT22;16915;51.466;3.610;2023-04-24T02:33:00;8.80;99.90
30097;DHT22;16915;51.466;3.610;2023-04-24T02:35:25;8.80;99.90
30097;DHT22;16915;51.466;3.610;2023-04-24T02:37:51;8.80;99.90
30097;DHT22;16915;51.466;3.610;2023-04-24T02:40:16;8.70;99.90
30097;DHT22;16915;51.466;3.610;2023-04-24T02:42:42;8.70;99.90
30097;DHT22;16915;51.466;3.610;2023-04-24T02:45:08;8.70;99.90
30097;DHT22;16915;51.466;3.610;2023-04-24T02:47:33;8.60;99.90
30097;DHT22;16915;51.466;3.610;2023-04-24T02:49:59;8.70;99.90
30097;DHT22;16915;51.466;3.610;2023-04-24T02:52:25;8.60;99.90
30097;DHT22;16915;51.466;3.610;2023-04-24T02:54:50;8.60;99.90
30097;DHT22;16915;51.466;3.610;2023-04-24T02:57:16;8.60;99.90
30097;DHT22;16915;51.466;3.610;2023-04-24T02:59:41;8.60;99.90
30097;DHT22;16915;51.466;3.610;2023-04-24T03:02:07;8.50;99.90
30097;DHT22;16915;51.466;3.610;2023-04-24T03:04:32;8.50;99.90
30097;DHT22;16915;51.466;3.610;2023-04-24T03:06:58;8.50;99.90
30097;DHT22;16915;51.466;3.610;2023-04-24T03:09:24;8.50;99.90
30097;DHT22;16915;51.466;3.610;2023-04-24T03:11:49;8.50;99.90
30097;DHT22;16915;51.466;3.610;2023-04-24T03:14:15;8.40;99.90
30097;DHT22;16915;51.466;3.610;2023-04-24T03:16:41;8.40;99.90
30097;DHT22;16915;51.466;3.610;2023-04-24T03:19:07;8.40;99.90
30097;DHT22;16915;51.466;3.610;2023-04-24T03:21:33;8.40;99.90
30097;DHT22;16915;51.466;3.610;2023-04-24T03:23:58;8.40;99.90
30097;DHT22;16915;51.466;3.610;2023-04-24T03:26:24;8.40;99.90
30097;DHT22;16915;51.466;3.610;2023-04-24T03:28:50;8.40;99.90
30097;DHT22;16915;51.466;3.610;2023-04-24T03:31:15;8.40;99.90
30097;DHT22;16915;51.466;3.610;2023-04-24T03:33:42;8.30;99.90
30097;DHT22;16915;51.466;3.610;2023-04-24T03:36:08;8.30;99.90
30097;DHT22;16915;51.466;3.610;2023-04-24T03:38:33;8.30;99.90
30097;DHT22;16915;51.466;3.610;2023-04-24T03:40:59;8.20;99.90
30097;DHT22;16915;51.466;3.610;2023-04-24T03:43:24;8.30;99.90
30097;DHT22;16915;51.466;3.610;2023-04-24T03:45:50;8.20;99.90
30097;DHT22;16915;51.466;3.610;2023-04-24T03:48:16;8.20;99.90
30097;DHT22;16915;51.466;3.610;2023-04-24T03:50:41;8.20;99.90
30097;DHT22;16915;51.466;3.610;2023-04-24T03:53:07;8.10;99.90
30097;DHT22;16915;51.466;3.610;2023-04-24T03:55:32;8.10;99.90
30097;DHT22;16915;51.466;3.610;2023-04-24T03:57:58;8.10;99.90
30097;DHT22;16915;51.466;3.610;2023-04-24T04:00:23;8.10;99.90
30097;DHT22;16915;51.466;3.610;2023-04-24T04:02:49;8.10;99.90
30097;DHT22;16915;51.466;3.610;2023-04-24T04:05:15;8.10;99.90
30097;DHT22;16915;51.466;3.610;2023-04-24T04:07:41;8.10;99.90
30097;DHT22;16915;51.466;3.610;2023-04-24T04:10:06;8.10;99.90
30097;DHT22;16915;51.466;3.610;2023-04-24T04:12:33;8.10;99.90
30097;DHT22;16915;51.466;3.610;2023-04-24T04:14:58;8.10;99.90
30097;DHT22;16915;51.466;3.610;2023-04-24T04:17:24;8.10;99.90
30097;DHT22;16915;51.466;3.610;2023-04-24T04:19:49;8.10;99.90
30097;DHT22;16915;51.466;3.610;2023-04-24T04:22:16;8.10;99.90
30097;DHT22;16915;51.466;3.610;2023-04-24T04:24:41;8.00;99.90
30097;DHT22;16915;51.466;3.610;2023-04-24T04:27:07;8.10;99.90
30097;DHT22;16915;51.466;3.610;2023-04-24T04:29:33;8.10;99.90
30097;DHT22;16915;51.466;3.610;2023-04-24T04:31:59;8.10;99.90
30097;DHT22;16915;51.466;3.610;2023-04-24T04:34:25;8.10;99.90
30097;DHT22;16915;51.466;3.610;2023-04-24T04:36:50;8.10;99.90
30097;DHT22;16915;51.466;3.610;2023-04-24T04:39:16;8.20;99.90
30097;DHT22;16915;51.466;3.610;2023-04-24T04:41:44;8.20;99.90
30097;DHT22;16915;51.466;3.610;2023-04-24T04:44:11;8.20;99.90
30097;DHT22;16915;51.466;3.610;2023-04-24T04:46:37;8.20;99.90
30097;DHT22;16915;51.466;3.610;2023-04-24T04:49:03;8.20;99.90
30097;DHT22;16915;51.466;3.610;2023-04-24T04:51:29;8.20;99.90
30097;DHT22;16915;51.466;3.610;2023-04-24T04:53:55;8.20;99.90
30097;DHT22;16915;51.466;3.610;2023-04-24T04:56:20;8.20;99.90
30097;DHT22;16915;51.466;3.610;2023-04-24T04:58:47;8.20;99.90
30097;DHT22;16915;51.466;3.610;2023-04-24T05:01:12;8.20;99.90
30097;DHT22;16915;51.466;3.610;2023-04-24T05:03:38;8.30;99.90
30097;DHT22;16915;51.466;3.610;2023-04-24T05:06:04;8.20;99.90
30097;DHT22;16915;51.466;3.610;2023-04-24T05:08:29;8.20;99.90
30097;DHT22;16915;51.466;3.610;2023-04-24T05:10:55;8.20;99.90
30097;DHT22;16915;51.466;3.610;2023-04-24T05:13:20;8.30;99.90
30097;DHT22;16915;51.466;3.610;2023-04-24T05:15:46;8.20;99.90
30097;DHT22;16915;51.466;3.610;2023-04-24T05:18:12;8.30;99.90
30097;DHT22;16915;51.466;3.610;2023-04-24T05:20:37;8.30;99.90
30097;DHT22;16915;51.466;3.610;2023-04-24T05:23:03;8.30;99.90
30097;DHT22;16915;51.466;3.610;2023-04-24T05:25:29;8.30;99.90
30097;DHT22;16915;51.466;3.610;2023-04-24T05:27:54;8.30;99.90
30097;DHT22;16915;51.466;3.610;2023-04-24T05:30:20;8.30;99.90
30097;DHT22;16915;51.466;3.610;2023-04-24T05:32:46;8.40;99.90
30097;DHT22;16915;51.466;3.610;2023-04-24T05:35:11;8.40;99.90
30097;DHT22;16915;51.466;3.610;2023-04-24T05:37:37;8.30;99.90
30097;DHT22;16915;51.466;3.610;2023-04-24T05:40:03;8.40;99.90
30097;DHT22;16915;51.466;3.610;2023-04-24T05:42:30;8.40;99.90
30097;DHT22;16915;51.466;3.610;2023-04-24T05:44:56;8.40;99.90
30097;DHT22;16915;51.466;3.610;2023-04-24T05:47:22;8.50;99.90
30097;DHT22;16915;51.466;3.610;2023-04-24T05:49:47;8.50;99.90
30097;DHT22;16915;51.466;3.610;2023-04-24T05:52:13;8.50;99.90
30097;DHT22;16915;51.466;3.610;2023-04-24T05:54:39;8.40;99.90
30097;DHT22;16915;51.466;3.610;2023-04-24T05:57:04;8.40;99.90
30097;DHT22;16915;51.466;3.610;2023-04-24T05:59:34;8.40;99.90
30097;DHT22;16915;51.466;3.610;2023-04-24T06:01:59;8.50;99.90
30097;DHT22;16915;51.466;3.610;2023-04-24T06:04:25;8.50;99.90
30097;DHT22;16915;51.466;3.610;2023-04-24T06:06:51;8.40;99.90
30097;DHT22;16915;51.466;3.610;2023-04-24T06:09:21;8.40;99.90
30097;DHT22;16915;51.466;3.610;2023-04-24T06:11:47;8.40;99.90
30097;DHT22;16915;51.466;3.610;2023-04-24T06:14:12;8.40;99.90
30097;DHT22;16915;51.466;3.610;2023-04-24T06:16:39;8.40;99.90
30097;DHT22;16915;51.466;3.610;2023-04-24T06:19:05;8.40;99.90
30097;DHT22;16915;51.466;3.610;2023-04-24T06:21:30;8.30;99.90
30097;DHT22;16915;51.466;3.610;2023-04-24T06:23:56;8.30;99.90
30097;DHT22;16915;51.466;3.610;2023-04-24T06:26:23;8.30;99.90
30097;DHT22;16915;51.466;3.610;2023-04-24T06:28:50;8.30;99.90
30097;DHT22;16915;51.466;3.610;2023-04-24T06:31:16;8.30;99.90
30097;DHT22;16915;51.466;3.610;2023-04-24T06:33:42;8.30;99.90
30097;DHT22;16915;51.466;3.610;2023-04-24T06:36:08;8.40;99.90
30097;DHT22;16915;51.466;3.610;2023-04-24T06:38:34;8.40;99.90
30097;DHT22;16915;51.466;3.610;2023-04-24T06:40:59;8.50;99.90
30097;DHT22;16915;51.466;3.610;2023-04-24T06:43:25;8.50;99.90
30097;DHT22;16915;51.466;3.610;2023-04-24T06:45:51;8.60;99.90
30097;DHT22;16915;51.466;3.610;2023-04-24T06:48:16;8.70;99.90
30097;DHT22;16915;51.466;3.610;2023-04-24T06:50:42;8.80;99.90
30097;DHT22;16915;51.466;3.610;2023-04-24T06:53:07;8.80;99.90
30097;DHT22;16915;51.466;3.610;2023-04-24T06:55:35;8.90;99.90
30097;DHT22;16915;51.466;3.610;2023-04-24T06:58:01;8.90;99.90
30097;DHT22;16915;51.466;3.610;2023-04-24T07:00:26;9.00;99.90
30097;DHT22;16915;51.466;3.610;2023-04-24T07:02:52;9.10;99.90
30097;DHT22;16915;51.466;3.610;2023-04-24T07:05:18;9.30;99.90
30097;DHT22;16915;51.466;3.610;2023-04-24T07:07:46;9.40;99.90
30097;DHT22;16915;51.466;3.610;2023-04-24T07:10:12;9.50;99.90
30097;DHT22;16915;51.466;3.610;2023-04-24T07:12:38;9.70;99.90
30097;DHT22;16915;51.466;3.610;2023-04-24T07:15:05;9.70;99.90
30097;DHT22;16915;51.466;3.610;2023-04-24T07:17:31;9.90;99.90
30097;DHT22;16915;51.466;3.610;2023-04-24T07:19:56;9.80;99.90
30097;DHT22;16915;51.466;3.610;2023-04-24T07:22:22;9.90;99.90
30097;DHT22;16915;51.466;3.610;2023-04-24T07:24:48;9.80;99.90
30097;DHT22;16915;51.466;3.610;2023-04-24T07:27:13;9.80;99.90
30097;DHT22;16915;51.466;3.610;2023-04-24T07:29:40;9.70;99.90
30097;DHT22;16915;51.466;3.610;2023-04-24T07:32:06;9.70;99.90
30097;DHT22;16915;51.466;3.610;2023-04-24T07:34:31;9.60;99.90
30097;DHT22;16915;51.466;3.610;2023-04-24T07:36:57;9.60;99.90
30097;DHT22;16915;51.466;3.610;2023-04-24T07:39:23;9.60;99.90
30097;DHT22;16915;51.466;3.610;2023-04-24T07:41:48;9.70;99.90
30097;DHT22;16915;51.466;3.610;2023-04-24T07:44:14;9.90;99.90
30097;DHT22;16915;51.466;3.610;2023-04-24T07:46:40;10.10;99.90
30097;DHT22;16915;51.466;3.610;2023-04-24T07:49:06;10.30;99.90
30097;DHT22;16915;51.466;3.610;2023-04-24T07:51:31;10.30;99.90
30097;DHT22;16915;51.466;3.610;2023-04-24T07:53:59;10.20;99.90
30097;DHT22;16915;51.466;3.610;2023-04-24T07:56:25;10.20;99.90
30097;DHT22;16915;51.466;3.610;2023-04-24T07:58:51;10.30;99.90
30097;DHT22;16915;51.466;3.610;2023-04-24T08:01:16;10.40;99.90
30097;DHT22;16915;51.466;3.610;2023-04-24T08:03:42;10.40;99.90
30097;DHT22;16915;51.466;3.610;2023-04-24T08:06:07;10.40;99.90
30097;DHT22;16915;51.466;3.610;2023-04-24T08:08:33;10.40;99.90
30097;DHT22;16915;51.466;3.610;2023-04-24T08:10:59;10.40;99.90
30097;DHT22;16915;51.466;3.610;2023-04-24T08:13:24;10.40;99.90
30097;DHT22;16915;51.466;3.610;2023-04-24T08:15:50;10.50;99.90
30097;DHT22;16915;51.466;3.610;2023-04-24T08:18:15;10.40;99.90
30097;DHT22;16915;51.466;3.610;2023-04-24T08:20:41;10.40;99.90
30097;DHT22;16915;51.466;3.610;2023-04-24T08:23:07;10.40;99.90
30097;DHT22;16915;51.466;3.610;2023-04-24T08:25:33;10.50;99.90
30097;DHT22;16915;51.466;3.610;2023-04-24T08:28:01;10.70;99.90
30097;DHT22;16915;51.466;3.610;2023-04-24T08:30:27;10.90;99.90
30097;DHT22;16915;51.466;3.610;2023-04-24T08:32:53;10.90;99.90
30097;DHT22;16915;51.466;3.610;2023-04-24T08:35:18;10.90;99.90
30097;DHT22;16915;51.466;3.610;2023-04-24T08:37:44;10.90;99.90
30097;DHT22;16915;51.466;3.610;2023-04-24T08:40:14;11.10;99.90
30097;DHT22;16915;51.466;3.610;2023-04-24T08:42:44;11.00;99.90
30097;DHT22;16915;51.466;3.610;2023-04-24T08:45:12;11.10;99.90
30097;DHT22;16915;51.466;3.610;2023-04-24T08:47:39;11.00;99.90
30097;DHT22;16915;51.466;3.610;2023-04-24T08:50:06;11.00;99.90
30097;DHT22;16915;51.466;3.610;2023-04-24T08:52:33;11.00;99.90
30097;DHT22;16915;51.466;3.610;2023-04-24T08:55:00;10.70;99.90
30097;DHT22;16915;51.466;3.610;2023-04-24T08:57:26;10.50;99.90
30097;DHT22;16915;51.466;3.610;2023-04-24T08:59:53;10.30;99.90
30097;DHT22;16915;51.466;3.610;2023-04-24T09:02:21;10.10;99.90
30097;DHT22;16915;51.466;3.610;2023-04-24T09:04:47;10.00;99.90
30097;DHT22;16915;51.466;3.610;2023-04-24T09:07:14;10.00;99.90
30097;DHT22;16915;51.466;3.610;2023-04-24T09:09:42;10.00;99.90
30097;DHT22;16915;51.466;3.610;2023-04-24T09:12:07;10.10;99.90
30097;DHT22;16915;51.466;3.610;2023-04-24T09:14:35;10.20;99.90
30097;DHT22;16915;51.466;3.610;2023-04-24T09:17:03;10.40;99.90
30097;DHT22;16915;51.466;3.610;2023-04-24T09:19:29;10.60;99.90
30097;DHT22;16915;51.466;3.610;2023-04-24T09:21:55;10.70;99.90
30097;DHT22;16915;51.466;3.610;2023-04-24T09:24:21;10.90;99.90
30097;DHT22;16915;51.466;3.610;2023-04-24T09:26:59;11.00;99.90
30097;DHT22;16915;51.466;3.610;2023-04-24T09:29:26;11.30;99.90
30097;DHT22;16915;51.466;3.610;2023-04-24T09:31:52;11.60;99.90
30097;DHT22;16915;51.466;3.610;2023-04-24T09:34:36;11.80;99.90
30097;DHT22;16915;51.466;3.610;2023-04-24T09:37:01;12.00;99.90
30097;DHT22;16915;51.466;3.610;2023-04-24T09:39:27;12.20;99.90
30097;DHT22;16915;51.466;3.610;2023-04-24T09:41:56;12.20;99.90
30097;DHT22;16915;51.466;3.610;2023-04-24T09:44:27;12.10;99.90
30097;DHT22;16915;51.466;3.610;2023-04-24T09:49:25;11.80;99.90
30097;DHT22;16915;51.466;3.610;2023-04-24T09:51:50;11.60;99.90
30097;DHT22;16915;51.466;3.610;2023-04-24T09:54:21;11.40;99.90
30097;DHT22;16915;51.466;3.610;2023-04-24T09:56:48;11.20;99.90
30097;DHT22;16915;51.466;3.610;2023-04-24T09:59:16;11.10;99.90
30097;DHT22;16915;51.466;3.610;2023-04-24T10:01:42;10.90;99.90
30097;DHT22;16915;51.466;3.610;2023-04-24T10:04:35;10.70;99.90
30097;DHT22;16915;51.466;3.610;2023-04-24T10:07:03;10.50;99.90
30097;DHT22;16915;51.466;3.610;2023-04-24T10:09:31;10.30;99.90
30097;DHT22;16915;51.466;3.610;2023-04-24T10:11:58;10.20;99.90
30097;DHT22;16915;51.466;3.610;2023-04-24T10:14:25;10.10;99.90
30097;DHT22;16915;51.466;3.610;2023-04-24T10:16:55;10.10;99.90
30097;DHT22;16915;51.466;3.610;2023-04-24T10:19:25;10.20;99.90
30097;DHT22;16915;51.466;3.610;2023-04-24T10:21:51;10.40;99.90
30097;DHT22;16915;51.466;3.610;2023-04-24T10:24:18;10.70;99.90
30097;DHT22;16915;51.466;3.610;2023-04-24T10:26:46;11.00;99.90
30097;DHT22;16915;51.466;3.610;2023-04-24T10:29:18;11.20;99.90
30097;DHT22;16915;51.466;3.610;2023-04-24T10:31:44;11.50;99.90
30097;DHT22;16915;51.466;3.610;2023-04-24T10:34:15;11.70;99.90
30097;DHT22;16915;51.466;3.610;2023-04-24T10:36:51;11.80;99.90
30097;DHT22;16915;51.466;3.610;2023-04-24T10:39:17;11.90;99.90
30097;DHT22;16915;51.466;3.610;2023-04-24T10:41:44;12.00;99.90
30097;DHT22;16915;51.466;3.610;2023-04-24T10:44:14;11.90;99.90
30097;DHT22;16915;51.466;3.610;2023-04-24T10:46:47;12.00;99.90
30097;DHT22;16915;51.466;3.610;2023-04-24T10:49:28;12.10;99.90
30097;DHT22;16915;51.466;3.610;2023-04-24T10:51:54;12.30;99.90
30097;DHT22;16915;51.466;3.610;2023-04-24T10:54:33;12.40;99.90
30097;DHT22;16915;51.466;3.610;2023-04-24T10:59:43;12.70;99.90
30097;DHT22;16915;51.466;3.610;2023-04-24T11:02:09;13.00;99.90
30097;DHT22;16915;51.466;3.610;2023-04-24T11:04:35;13.30;99.90
30097;DHT22;16915;51.466;3.610;2023-04-24T11:07:02;13.70;99.90
30097;DHT22;16915;51.466;3.610;2023-04-24T11:09:30;14.20;99.90
30097;DHT22;16915;51.466;3.610;2023-04-24T11:12:07;14.50;99.90
30097;DHT22;16915;51.466;3.610;2023-04-24T11:17:35;15.70;99.90
30097;DHT22;16915;51.466;3.610;2023-04-24T11:20:11;16.40;99.90
30097;DHT22;16915;51.466;3.610;2023-04-24T11:22:39;16.40;99.90
30097;DHT22;16915;51.466;3.610;2023-04-24T11:25:08;16.00;99.90
30097;DHT22;16915;51.466;3.610;2023-04-24T11:27:42;15.70;99.90
30097;DHT22;16915;51.466;3.610;2023-04-24T11:30:09;15.50;99.90
30097;DHT22;16915;51.466;3.610;2023-04-24T11:32:47;15.20;99.90
30097;DHT22;16915;51.466;3.610;2023-04-24T11:35:16;15.20;99.90
30097;DHT22;16915;51.466;3.610;2023-04-24T11:37:43;14.90;99.90
30097;DHT22;16915;51.466;3.610;2023-04-24T11:40:12;14.80;99.90
30097;DHT22;16915;51.466;3.610;2023-04-24T11:42:40;14.90;99.90
30097;DHT22;16915;51.466;3.610;2023-04-24T11:45:11;14.80;99.90
30097;DHT22;16915;51.466;3.610;2023-04-24T11:47:37;14.50;99.90
30097;DHT22;16915;51.466;3.610;2023-04-24T11:50:04;14.30;99.90
30097;DHT22;16915;51.466;3.610;2023-04-24T11:52:31;14.00;99.90
30097;DHT22;16915;51.466;3.610;2023-04-24T11:54:57;13.70;99.90
30097;DHT22;16915;51.466;3.610;2023-04-24T11:57:24;13.60;99.90
30097;DHT22;16915;51.466;3.610;2023-04-24T11:59:53;13.90;99.90
30097;DHT22;16915;51.466;3.610;2023-04-24T12:02:23;14.10;99.90
30097;DHT22;16915;51.466;3.610;2023-04-24T12:04:48;14.50;99.90
30097;DHT22;16915;51.466;3.610;2023-04-24T12:07:14;15.60;99.90
30097;DHT22;16915;51.466;3.610;2023-04-24T12:09:41;16.60;99.90
30097;DHT22;16915;51.466;3.610;2023-04-24T12:12:07;17.40;99.90
30097;DHT22;16915;51.466;3.610;2023-04-24T12:14:46;17.80;99.90
30097;DHT22;16915;51.466;3.610;2023-04-24T12:17:12;18.10;99.90
30097;DHT22;16915;51.466;3.610;2023-04-24T12:19:44;18.10;99.90
30097;DHT22;16915;51.466;3.610;2023-04-24T12:22:09;17.50;99.90
30097;DHT22;16915;51.466;3.610;2023-04-24T12:24:35;17.00;99.90
30097;DHT22;16915;51.466;3.610;2023-04-24T12:27:01;17.20;99.90
30097;DHT22;16915;51.466;3.610;2023-04-24T12:29:26;17.60;99.90
30097;DHT22;16915;51.466;3.610;2023-04-24T12:31:52;17.50;99.90
30097;DHT22;16915;51.466;3.610;2023-04-24T12:34:22;16.90;99.90
30097;DHT22;16915;51.466;3.610;2023-04-24T12:36:48;16.30;99.90
30097;DHT22;16915;51.466;3.610;2023-04-24T12:39:18;15.80;99.90
30097;DHT22;16915;51.466;3.610;2023-04-24T12:41:54;15.60;99.90
30097;DHT22;16915;51.466;3.610;2023-04-24T12:44:32;15.60;99.90
30097;DHT22;16915;51.466;3.610;2023-04-24T12:47:00;15.30;99.90
30097;DHT22;16915;51.466;3.610;2023-04-24T12:49:26;14.90;99.90
30097;DHT22;16915;51.466;3.610;2023-04-24T12:51:52;14.80;99.90
30097;DHT22;16915;51.466;3.610;2023-04-24T12:54:17;14.90;99.90
30097;DHT22;16915;51.466;3.610;2023-04-24T12:56:43;15.40;99.90
30097;DHT22;16915;51.466;3.610;2023-04-24T12:59:08;16.30;99.90
30097;DHT22;16915;51.466;3.610;2023-04-24T13:01:34;17.40;99.90
30097;DHT22;16915;51.466;3.610;2023-04-24T13:03:59;18.80;99.90
30097;DHT22;16915;51.466;3.610;2023-04-24T13:06:25;19.20;99.90
30097;DHT22;16915;51.466;3.610;2023-04-24T13:08:52;19.50;99.90
30097;DHT22;16915;51.466;3.610;2023-04-24T13:11:17;19.50;99.90
30097;DHT22;16915;51.466;3.610;2023-04-24T13:13:43;19.30;99.90
30097;DHT22;16915;51.466;3.610;2023-04-24T13:16:09;18.60;99.90
30097;DHT22;16915;51.466;3.610;2023-04-24T13:18:34;17.70;99.90
30097;DHT22;16915;51.466;3.610;2023-04-24T13:21:00;17.00;99.90
30097;DHT22;16915;51.466;3.610;2023-04-24T13:23:26;16.60;99.90
30097;DHT22;16915;51.466;3.610;2023-04-24T13:25:51;16.50;99.90
30097;DHT22;16915;51.466;3.610;2023-04-24T13:28:17;16.40;99.90
30097;DHT22;16915;51.466;3.610;2023-04-24T13:30:43;16.70;99.90
30097;DHT22;16915;51.466;3.610;2023-04-24T13:33:09;17.10;99.90
30097;DHT22;16915;51.466;3.610;2023-04-24T13:35:34;17.40;99.90
30097;DHT22;16915;51.466;3.610;2023-04-24T13:38:00;17.70;99.90
30097;DHT22;16915;51.466;3.610;2023-04-24T13:40:27;18.00;99.90
30097;DHT22;16915;51.466;3.610;2023-04-24T13:42:52;17.90;99.90
30097;DHT22;16915;51.466;3.610;2023-04-24T13:45:18;17.80;99.90
30097;DHT22;16915;51.466;3.610;2023-04-24T13:47:43;18.00;99.90
30097;DHT22;16915;51.466;3.610;2023-04-24T13:50:09;18.70;99.90
30097;DHT22;16915;51.466;3.610;2023-04-24T13:52:35;19.70;99.90
30097;DHT22;16915;51.466;3.610;2023-04-24T13:55:01;20.50;99.90
30097;DHT22;16915;51.466;3.610;2023-04-24T13:57:26;21.10;99.90
30097;DHT22;16915;51.466;3.610;2023-04-24T13:59:53;21.60;99.90
30097;DHT22;16915;51.466;3.610;2023-04-24T14:02:20;22.10;99.90
30097;DHT22;16915;51.466;3.610;2023-04-24T14:04:46;22.90;98.60
30097;DHT22;16915;51.466;3.610;2023-04-24T14:07:13;23.00;98.00
30097;DHT22;16915;51.466;3.610;2023-04-24T14:09:39;22.60;97.80
30097;DHT22;16915;51.466;3.610;2023-04-24T14:12:04;21.90;98.50
30097;DHT22;16915;51.466;3.610;2023-04-24T14:14:31;21.70;98.90
30097;DHT22;16915;51.466;3.610;2023-04-24T14:16:57;21.90;97.70
30097;DHT22;16915;51.466;3.610;2023-04-24T14:19:22;22.00;98.30
30097;DHT22;16915;51.466;3.610;2023-04-24T14:21:48;22.50;98.50
30097;DHT22;16915;51.466;3.610;2023-04-24T14:24:13;22.90;97.70
30097;DHT22;16915;51.466;3.610;2023-04-24T14:26:39;22.40;96.80
30097;DHT22;16915;51.466;3.610;2023-04-24T14:29:05;22.50;98.10
30097;DHT22;16915;51.466;3.610;2023-04-24T14:31:31;22.50;97.20
30097;DHT22;16915;51.466;3.610;2023-04-24T14:33:56;22.20;97.00
30097;DHT22;16915;51.466;3.610;2023-04-24T14:36:23;22.20;97.00
30097;DHT22;16915;51.466;3.610;2023-04-24T14:38:49;22.20;95.90
30097;DHT22;16915;51.466;3.610;2023-04-24T14:41:14;21.60;96.20
30097;DHT22;16915;51.466;3.610;2023-04-24T14:43:40;21.00;97.30
30097;DHT22;16915;51.466;3.610;2023-04-24T14:46:05;20.40;97.80
30097;DHT22;16915;51.466;3.610;2023-04-24T14:48:31;19.60;98.20
30097;DHT22;16915;51.466;3.610;2023-04-24T14:50:57;18.80;99.40
30097;DHT22;16915;51.466;3.610;2023-04-24T14:53:22;17.90;99.90
30097;DHT22;16915;51.466;3.610;2023-04-24T14:55:48;17.30;99.90
30097;DHT22;16915;51.466;3.610;2023-04-24T14:58:13;16.60;99.90
30097;DHT22;16915;51.466;3.610;2023-04-24T15:00:39;16.00;99.90
30097;DHT22;16915;51.466;3.610;2023-04-24T15:03:05;15.70;99.90
30097;DHT22;16915;51.466;3.610;2023-04-24T15:05:31;15.40;99.90
30097;DHT22;16915;51.466;3.610;2023-04-24T15:07:56;15.90;99.90
30097;DHT22;16915;51.466;3.610;2023-04-24T15:10:22;16.30;99.90
30097;DHT22;16915;51.466;3.610;2023-04-24T15:12:49;16.20;99.90
30097;DHT22;16915;51.466;3.610;2023-04-24T15:15:15;15.90;99.90
30097;DHT22;16915;51.466;3.610;2023-04-24T15:17:40;15.70;99.90
30097;DHT22;16915;51.466;3.610;2023-04-24T15:20:07;15.40;99.90
30097;DHT22;16915;51.466;3.610;2023-04-24T15:22:32;15.10;99.90
30097;DHT22;16915;51.466;3.610;2023-04-24T15:24:58;14.70;99.90
30097;DHT22;16915;51.466;3.610;2023-04-24T15:27:24;14.30;99.90
30097;DHT22;16915;51.466;3.610;2023-04-24T15:29:49;14.00;99.90
30097;DHT22;16915;51.466;3.610;2023-04-24T15:32:15;13.70;99.90
30097;DHT22;16915;51.466;3.610;2023-04-24T15:34:40;13.40;99.90
30097;DHT22;16915;51.466;3.610;2023-04-24T15:37:06;13.20;99.90
30097;DHT22;16915;51.466;3.610;2023-04-24T15:39:32;12.90;99.90
30097;DHT22;16915;51.466;3.610;2023-04-24T15:41:58;12.70;99.90